Time;durP1;ratioP1;P1;durP2;ratioP2;P2;SDS_P1;SDS_P2;PMS_P1;PMS_P2;Temp;Humidity;BMP_temperature;BMP_pressure;BME280_temperature;BME280_humidity;BME280_pressure;Samples;Min_cycle;Max_cycle;Signal;HPM_P1;HPM_P2
2022/07/21 00:01:51;;;;;;;5.68;2.80;;;;;;;;;;5015647;28;20401;-84
2022/07/21 00:04:17;;;;;;;5.00;2.92;;;;;;;;;;5001973;28;20041;-84
2022/07/21 00:06:43;;;;;;;5.05;3.17;;;;;;;;;;5015094;28;20041;-84
2022/07/21 00:09:09;;;;;;;5.63;3.15;;;;;;;;;;5019159;28;20087;-83
2022/07/21 00:11:35;;;;;;;10.35;3.10;;;;;;;;;;4997634;28;20438;-84
2022/07/21 00:14:00;;;;;;;6.13;3.05;;;;;;;;;;5005765;28;20061;-84
2022/07/21 00:16:26;;;;;;;5.70;3.03;;;;;;;;;;5006879;28;20038;-84
2022/07/21 00:18:51;;;;;;;4.63;2.88;;;;;;;;;;4997966;28;20045;-84
2022/07/21 00:21:16;;;;;;;6.40;3.30;;;;;;;;;;5000667;28;20552;-84
2022/07/21 00:23:42;;;;;;;6.45;3.15;;;;;;;;;;5013066;28;20386;-84
2022/07/21 00:26:07;;;;;;;5.25;3.20;;;;;;;;;;5007766;28;20037;-84
2022/07/21 00:28:32;;;;;;;4.60;3.03;;;;;;;;;;5002954;28;20489;-84
2022/07/21 00:30:58;;;;;;;7.10;3.30;;;;;;;;;;5002868;28;20041;-84
2022/07/21 00:33:23;;;;;;;5.32;3.20;;;;;;;;;;4998424;28;20061;-85
2022/07/21 00:35:49;;;;;;;5.90;3.20;;;;;;;;;;4997546;28;20045;-84
2022/07/21 00:38:14;;;;;;;6.20;3.22;;;;;;;;;;5000643;28;20044;-84
2022/07/21 00:40:39;;;;;;;5.03;3.10;;;;;;;;;;5006495;28;20155;-85
2022/07/21 00:43:05;;;;;;;6.63;3.42;;;;;;;;;;4998495;28;20529;-84
2022/07/21 00:45:30;;;;;;;3.97;2.83;;;;;;;;;;4994661;28;20488;-84
2022/07/21 00:47:56;;;;;;;5.32;3.30;;;;;;;;;;5000010;28;20412;-84
2022/07/21 00:50:21;;;;;;;7.45;3.38;;;;;;;;;;5000944;28;20034;-84
2022/07/21 00:52:48;;;;;;;5.53;3.38;;;;;;;;;;5004350;28;20033;-84
2022/07/21 00:55:17;;;;;;;5.18;3.40;;;;;;;;;;5011823;28;20050;-84
2022/07/21 00:57:43;;;;;;;5.88;3.25;;;;;;;;;;5013464;28;20048;-85
2022/07/21 01:00:13;;;;;;;5.57;3.28;;;;;;;;;;5023802;28;20046;-84
2022/07/21 01:02:38;;;;;;;8.25;3.28;;;;;;;;;;5013871;28;20813;-84
2022/07/21 01:05:05;;;;;;;5.50;3.63;;;;;;;;;;5018879;28;20096;-84
2022/07/21 01:07:31;;;;;;;4.32;3.17;;;;;;;;;;5016892;28;20029;-84
2022/07/21 01:09:57;;;;;;;5.43;3.20;;;;;;;;;;5012844;28;20091;-84
2022/07/21 01:12:22;;;;;;;5.03;3.22;;;;;;;;;;4998755;28;20033;-84
2022/07/21 01:14:48;;;;;;;6.93;3.13;;;;;;;;;;5015684;28;20886;-84
2022/07/21 01:17:13;;;;;;;6.40;3.30;;;;;;;;;;5012327;28;20037;-85
2022/07/21 01:19:39;;;;;;;5.90;3.58;;;;;;;;;;5007685;28;20045;-85
2022/07/21 01:22:04;;;;;;;6.72;3.42;;;;;;;;;;4992740;28;20434;-84
2022/07/21 01:24:29;;;;;;;5.60;3.42;;;;;;;;;;5018270;28;20037;-84
2022/07/21 01:26:55;;;;;;;6.28;3.30;;;;;;;;;;4999599;28;20485;-84
2022/07/21 01:29:21;;;;;;;4.75;3.13;;;;;;;;;;4996166;28;20549;-84
2022/07/21 01:31:48;;;;;;;5.35;3.40;;;;;;;;;;5012949;28;20560;-84
2022/07/21 01:34:13;;;;;;;5.45;3.22;;;;;;;;;;4997350;28;20034;-84
2022/07/21 01:36:39;;;;;;;5.43;3.10;;;;;;;;;;5011878;28;20041;-84
2022/07/21 01:41:49;;;;;;;5.05;3.30;;;;;;;;;;5011231;28;20060;-85
2022/07/21 01:44:15;;;;;;;5.40;3.40;;;;;;;;;;4983012;28;20069;-84
2022/07/21 01:46:46;;;;;;;5.18;3.25;;;;;;;;;;5009313;28;20549;-84
2022/07/21 01:49:14;;;;;;;7.68;3.55;;;;;;;;;;4996666;28;20057;-84
2022/07/21 01:51:39;;;;;;;;;;;;;;;;;;5018000;28;20540;-83
2022/07/21 01:54:06;;;;;;;5.25;3.40;;;;;;;;;;5023188;28;19964;-84
2022/07/21 01:56:32;;;;;;;4.88;3.08;;;;;;;;;;4991045;28;20961;-84
2022/07/21 01:58:57;;;;;;;4.40;2.90;;;;;;;;;;5012210;28;20043;-84
2022/07/21 02:01:31;;;;;;;4.40;3.08;;;;;;;;;;4997126;28;20919;-84
2022/07/21 02:03:59;;;;;;;4.82;3.05;;;;;;;;;;5002444;28;20044;-84
2022/07/21 02:06:24;;;;;;;5.65;2.95;;;;;;;;;;4996868;28;20537;-84
2022/07/21 02:08:50;;;;;;;5.47;3.05;;;;;;;;;;5007490;28;20132;-84
2022/07/21 02:11:18;;;;;;;6.57;3.22;;;;;;;;;;4993272;28;20044;-84
2022/07/21 02:13:44;;;;;;;6.32;2.92;;;;;;;;;;4997970;28;20041;-84
2022/07/21 02:16:13;;;;;;;5.53;3.55;;;;;;;;;;4985267;28;20836;-84
2022/07/21 02:18:40;;;;;;;5.10;2.88;;;;;;;;;;5006735;28;20480;-85
2022/07/21 02:21:06;;;;;;;4.97;3.03;;;;;;;;;;5005821;28;20433;-85
2022/07/21 02:23:32;;;;;;;6.70;3.33;;;;;;;;;;4999683;28;20091;-84
2022/07/21 02:25:57;;;;;;;5.18;3.22;;;;;;;;;;4993287;28;20033;-84
2022/07/21 02:28:23;;;;;;;4.57;2.85;;;;;;;;;;4996941;28;20079;-85
2022/07/21 02:30:49;;;;;;;5.65;3.20;;;;;;;;;;5011752;28;20030;-84
2022/07/21 02:33:14;;;;;;;4.90;3.10;;;;;;;;;;4996515;28;20025;-84
2022/07/21 02:35:40;;;;;;;6.68;2.88;;;;;;;;;;4992585;28;20504;-84
2022/07/21 02:38:06;;;;;;;5.07;3.05;;;;;;;;;;5014358;28;20915;-85
2022/07/21 02:40:32;;;;;;;7.50;3.67;;;;;;;;;;5006108;28;20378;-84
2022/07/21 02:42:57;;;;;;;5.95;3.10;;;;;;;;;;5012399;28;20033;-84
2022/07/21 02:45:25;;;;;;;4.65;2.80;;;;;;;;;;4997484;28;20045;-85
2022/07/21 02:47:51;;;;;;;4.82;2.70;;;;;;;;;;5004634;28;20050;-84
2022/07/21 02:50:18;;;;;;;4.20;2.42;;;;;;;;;;4998418;28;20392;-84
2022/07/21 02:52:44;;;;;;;6.82;3.10;;;;;;;;;;4999964;28;20037;-84
2022/07/21 02:55:09;;;;;;;4.88;2.90;;;;;;;;;;5014396;28;20065;-84
2022/07/21 02:57:35;;;;;;;4.80;2.78;;;;;;;;;;4999820;28;20728;-83
2022/07/21 03:00:02;;;;;;;5.90;3.22;;;;;;;;;;4995761;28;20033;-84
2022/07/21 03:02:28;;;;;;;6.93;3.10;;;;;;;;;;4981013;28;20119;-83
2022/07/21 03:04:53;;;;;;;6.00;2.70;;;;;;;;;;5005322;28;20135;-84
2022/07/21 03:07:18;;;;;;;6.45;3.08;;;;;;;;;;4997727;28;20040;-83
2022/07/21 03:09:44;;;;;;;7.68;3.05;;;;;;;;;;5000000;28;20040;-84
2022/07/21 03:12:09;;;;;;;4.47;2.88;;;;;;;;;;5013196;28;20044;-83
2022/07/21 03:14:34;;;;;;;5.75;2.95;;;;;;;;;;5000629;28;20037;-82
2022/07/21 03:17:02;;;;;;;5.60;2.92;;;;;;;;;;5002454;28;20034;-85
2022/07/21 03:19:27;;;;;;;5.25;2.97;;;;;;;;;;5000316;28;20132;-84
2022/07/21 03:21:52;;;;;;;4.65;2.83;;;;;;;;;;5000645;28;20137;-84
2022/07/21 03:24:18;;;;;;;5.47;2.45;;;;;;;;;;5003369;28;20049;-84
2022/07/21 03:26:43;;;;;;;4.25;2.72;;;;;;;;;;5015534;28;20038;-83
2022/07/21 03:29:09;;;;;;;9.52;3.30;;;;;;;;;;5017677;28;20370;-83
2022/07/21 03:31:35;;;;;;;5.30;2.80;;;;;;;;;;5015552;28;20050;-82
2022/07/21 03:34:00;;;;;;;9.07;3.03;;;;;;;;;;5003298;28;20080;-84
2022/07/21 03:36:26;;;;;;;6.03;3.40;;;;;;;;;;4995976;28;20037;-83
2022/07/21 03:38:51;;;;;;;5.20;2.88;;;;;;;;;;5014398;28;20184;-84
2022/07/21 03:41:16;;;;;;;5.07;2.88;;;;;;;;;;4992658;28;20120;-84
2022/07/21 03:43:42;;;;;;;6.82;2.92;;;;;;;;;;5016805;28;20060;-84
2022/07/21 03:46:07;;;;;;;4.80;2.80;;;;;;;;;;5002821;28;20033;-83
2022/07/21 03:48:32;;;;;;;4.30;2.90;;;;;;;;;;4998111;28;20045;-84
2022/07/21 03:50:58;;;;;;;5.25;2.80;;;;;;;;;;5015611;28;20087;-84
2022/07/21 03:53:23;;;;;;;5.38;2.75;;;;;;;;;;5014682;28;20133;-85
2022/07/21 03:55:48;;;;;;;5.65;2.70;;;;;;;;;;5014851;28;20046;-83
2022/07/21 03:58:14;;;;;;;4.22;2.70;;;;;;;;;;4998778;28;20044;-83
2022/07/21 04:00:41;;;;;;;5.68;2.58;;;;;;;;;;4997644;28;20041;-84
2022/07/21 04:03:07;;;;;;;4.18;2.70;;;;;;;;;;4998887;28;20497;-84
2022/07/21 04:05:33;;;;;;;4.80;2.55;;;;;;;;;;4999434;28;20030;-84
2022/07/21 04:07:59;;;;;;;4.97;2.70;;;;;;;;;;5003284;28;20132;-84
2022/07/21 04:10:27;;;;;;;4.88;2.78;;;;;;;;;;5000708;28;20071;-84
2022/07/21 04:12:53;;;;;;;4.07;2.58;;;;;;;;;;5011504;28;20049;-83
2022/07/21 04:15:19;;;;;;;5.50;2.58;;;;;;;;;;5015688;28;20409;-84
2022/07/21 04:17:44;;;;;;;5.35;3.10;;;;;;;;;;5001900;28;20045;-85
2022/07/21 04:20:12;;;;;;;5.00;3.00;;;;;;;;;;5006497;28;20038;-84
2022/07/21 04:22:37;;;;;;;;;;;;;;;;;;4997634;28;20068;-84
2022/07/21 04:25:04;;;;;;;6.70;2.97;;;;;;;;;;5010183;28;19913;-84
2022/07/21 04:27:30;;;;;;;6.15;2.78;;;;;;;;;;5014350;28;20033;-84
2022/07/21 04:29:55;;;;;;;5.07;3.03;;;;;;;;;;5008019;28;20409;-83
2022/07/21 04:32:21;;;;;;;5.93;2.95;;;;;;;;;;5016049;28;20131;-84
2022/07/21 04:34:46;;;;;;;7.47;3.25;;;;;;;;;;4985544;28;20149;-83
2022/07/21 04:37:11;;;;;;;5.97;2.70;;;;;;;;;;5012258;28;20034;-83
2022/07/21 04:39:37;;;;;;;5.22;2.97;;;;;;;;;;5019871;28;20408;-83
2022/07/21 04:42:02;;;;;;;5.32;2.80;;;;;;;;;;5012645;28;20040;-83
2022/07/21 04:44:28;;;;;;;5.15;3.03;;;;;;;;;;4997528;28;20524;-84
2022/07/21 04:46:53;;;;;;;4.45;3.15;;;;;;;;;;5001278;28;20045;-84
2022/07/21 04:49:18;;;;;;;7.20;3.20;;;;;;;;;;5017861;28;20030;-84
2022/07/21 04:51:44;;;;;;;7.97;3.50;;;;;;;;;;4993894;28;20498;-84
2022/07/21 04:54:09;;;;;;;7.18;4.47;;;;;;;;;;5014891;28;20042;-84
2022/07/21 04:56:35;;;;;;;8.57;5.43;;;;;;;;;;5004052;28;20535;-81
2022/07/21 04:59:03;;;;;;;9.70;6.28;;;;;;;;;;5015824;28;20042;-84
2022/07/21 05:01:29;;;;;;;9.40;6.40;;;;;;;;;;5006370;28;20559;-83
2022/07/21 05:03:54;;;;;;;10.82;6.85;;;;;;;;;;5011161;28;20042;-83
2022/07/21 05:06:19;;;;;;;11.43;7.35;;;;;;;;;;4993908;28;20042;-83
2022/07/21 05:08:45;;;;;;;10.38;7.20;;;;;;;;;;5002251;28;20482;-83
2022/07/21 05:11:10;;;;;;;9.80;7.38;;;;;;;;;;5000864;28;20091;-83
2022/07/21 05:13:35;;;;;;;9.73;6.85;;;;;;;;;;5001751;28;20124;-82
2022/07/21 05:16:01;;;;;;;10.25;7.32;;;;;;;;;;4985452;28;20476;-84
2022/07/21 05:18:26;;;;;;;11.18;7.75;;;;;;;;;;4999607;28;20042;-83
2022/07/21 05:20:52;;;;;;;12.27;7.93;;;;;;;;;;5000925;28;20049;-86
2022/07/21 05:23:17;;;;;;;13.20;8.00;;;;;;;;;;5000427;28;20224;-84
2022/07/21 05:25:42;;;;;;;11.60;7.28;;;;;;;;;;4997193;28;20042;-84
2022/07/21 05:28:08;;;;;;;11.07;7.88;;;;;;;;;;5016378;28;20045;-84
2022/07/21 05:30:33;;;;;;;13.48;7.85;;;;;;;;;;5007066;28;20034;-83
2022/07/21 05:32:58;;;;;;;12.40;8.48;;;;;;;;;;4997921;28;20045;-84
2022/07/21 05:35:24;;;;;;;11.18;8.07;;;;;;;;;;4996417;28;20064;-86
2022/07/21 05:37:49;;;;;;;11.32;7.70;;;;;;;;;;5001047;28;20033;-86
2022/07/21 05:40:15;;;;;;;10.35;7.95;;;;;;;;;;4983847;28;20039;-85
2022/07/21 05:42:40;;;;;;;12.45;8.10;;;;;;;;;;4999131;28;20041;-86
2022/07/21 05:45:06;;;;;;;12.43;8.30;;;;;;;;;;5005282;28;20053;-84
2022/07/21 05:47:32;;;;;;;11.43;7.93;;;;;;;;;;5008772;28;20038;-85
2022/07/21 05:49:58;;;;;;;12.90;7.68;;;;;;;;;;5015153;28;20044;-86
2022/07/21 05:52:23;;;;;;;11.07;7.47;;;;;;;;;;4998319;28;20532;-84
2022/07/21 05:54:49;;;;;;;11.13;8.02;;;;;;;;;;5006257;28;20057;-85
2022/07/21 05:57:14;;;;;;;12.95;7.43;;;;;;;;;;4995529;28;20033;-85
2022/07/21 05:59:40;;;;;;;12.23;7.85;;;;;;;;;;4979236;28;20049;-86
2022/07/21 06:02:06;;;;;;;12.82;8.38;;;;;;;;;;5000904;28;20438;-84
2022/07/21 06:04:31;;;;;;;11.07;7.45;;;;;;;;;;5001028;28;20427;-86
2022/07/21 06:06:56;;;;;;;12.13;7.43;;;;;;;;;;4999295;28;20029;-85
2022/07/21 06:09:22;;;;;;;11.00;7.78;;;;;;;;;;5014640;28;20046;-86
2022/07/21 06:11:48;;;;;;;11.00;7.53;;;;;;;;;;4988246;28;20041;-86
2022/07/21 06:14:14;;;;;;;10.88;7.97;;;;;;;;;;5005749;28;20042;-86
2022/07/21 06:16:39;;;;;;;12.70;7.07;;;;;;;;;;5012610;28;20090;-84
2022/07/21 06:19:06;;;;;;;10.73;7.10;;;;;;;;;;4994937;28;20042;-85
2022/07/21 06:21:32;;;;;;;9.88;7.57;;;;;;;;;;5002538;28;20482;-85
2022/07/21 06:23:57;;;;;;;9.80;7.10;;;;;;;;;;5000137;28;20025;-84
2022/07/21 06:26:23;;;;;;;10.45;7.43;;;;;;;;;;4990343;28;20128;-84
2022/07/21 06:28:48;;;;;;;12.52;7.35;;;;;;;;;;5011453;28;20079;-84
2022/07/21 06:31:13;;;;;;;10.73;7.50;;;;;;;;;;4998632;28;20042;-84
2022/07/21 06:33:39;;;;;;;10.05;7.00;;;;;;;;;;5011502;28;20041;-85
2022/07/21 06:36:06;;;;;;;10.63;7.25;;;;;;;;;;5013428;28;20156;-84
2022/07/21 06:38:31;;;;;;;12.80;7.35;;;;;;;;;;5003316;28;20033;-84
2022/07/21 06:40:57;;;;;;;11.07;7.15;;;;;;;;;;4999887;28;20211;-84
2022/07/21 06:43:22;;;;;;;14.32;6.78;;;;;;;;;;5001736;28;20402;-85
2022/07/21 06:45:47;;;;;;;10.95;7.10;;;;;;;;;;5004927;28;20513;-85
2022/07/21 06:48:13;;;;;;;10.25;6.60;;;;;;;;;;4999928;28;20053;-85
2022/07/21 06:50:38;;;;;;;8.60;6.82;;;;;;;;;;5016196;28;20033;-85
2022/07/21 06:53:04;;;;;;;10.60;6.60;;;;;;;;;;5005330;28;20374;-85
2022/07/21 06:55:30;;;;;;;10.38;6.72;;;;;;;;;;5003217;28;20115;-85
2022/07/21 06:57:55;;;;;;;9.02;6.72;;;;;;;;;;5012678;28;20528;-85
2022/07/21 07:00:21;;;;;;;8.25;6.28;;;;;;;;;;5002364;28;20088;-84
2022/07/21 07:02:46;;;;;;;9.30;6.07;;;;;;;;;;5014021;28;20682;-84
2022/07/21 07:05:11;;;;;;;8.05;6.30;;;;;;;;;;5016336;28;20083;-84
2022/07/21 07:07:37;;;;;;;7.93;5.88;;;;;;;;;;4999163;28;20045;-85
2022/07/21 07:10:03;;;;;;;9.57;6.55;;;;;;;;;;5018290;28;20037;-84
2022/07/21 07:12:28;;;;;;;8.35;6.03;;;;;;;;;;5018666;28;20041;-84
2022/07/21 07:14:54;;;;;;;9.43;6.03;;;;;;;;;;5017468;28;20551;-85
2022/07/21 07:17:19;;;;;;;8.90;6.18;;;;;;;;;;5001218;28;20503;-85
2022/07/21 07:19:46;;;;;;;9.77;6.10;;;;;;;;;;5020677;28;20033;-85
2022/07/21 07:22:12;;;;;;;9.70;5.97;;;;;;;;;;4997446;28;20429;-84
2022/07/21 07:24:37;;;;;;;7.78;6.05;;;;;;;;;;5003200;28;20296;-85
2022/07/21 07:27:02;;;;;;;8.07;6.07;;;;;;;;;;5013509;28;20612;-84
2022/07/21 07:29:28;;;;;;;9.80;6.15;;;;;;;;;;5014923;28;20121;-85
2022/07/21 07:31:54;;;;;;;8.75;5.72;;;;;;;;;;5013616;28;20501;-85
2022/07/21 07:34:19;;;;;;;9.40;5.68;;;;;;;;;;4993822;28;20030;-85
2022/07/21 07:36:45;;;;;;;8.77;5.78;;;;;;;;;;5006762;28;20040;-85
2022/07/21 07:39:10;;;;;;;7.68;5.75;;;;;;;;;;5002482;28;20041;-85
2022/07/21 07:41:36;;;;;;;6.70;5.10;;;;;;;;;;4988560;28;20048;-85
2022/07/21 07:44:01;;;;;;;10.65;5.45;;;;;;;;;;5004791;28;20026;-84
2022/07/21 07:46:27;;;;;;;10.85;5.90;;;;;;;;;;4991743;28;20038;-85
2022/07/21 07:48:52;;;;;;;7.55;5.38;;;;;;;;;;4987307;28;20533;-85
2022/07/21 07:51:17;;;;;;;8.20;5.13;;;;;;;;;;4996205;28;20030;-86
2022/07/21 07:53:43;;;;;;;7.85;5.30;;;;;;;;;;5008219;28;20050;-85
2022/07/21 07:56:08;;;;;;;7.72;5.28;;;;;;;;;;4982387;28;20042;-86
2022/07/21 07:58:34;;;;;;;8.50;5.47;;;;;;;;;;4986094;28;20521;-84
2022/07/21 08:00:59;;;;;;;7.88;5.43;;;;;;;;;;5013932;28;20134;-84
2022/07/21 08:03:25;;;;;;;10.00;5.78;;;;;;;;;;5007396;28;20029;-85
2022/07/21 08:05:52;;;;;;;7.38;5.68;;;;;;;;;;5000060;28;20034;-84
2022/07/21 08:08:18;;;;;;;8.38;5.53;;;;;;;;;;5001169;28;20025;-85
2022/07/21 08:10:45;;;;;;;8.63;5.72;;;;;;;;;;4999877;28;20547;-84
2022/07/21 08:13:12;;;;;;;9.70;6.10;;;;;;;;;;4999765;28;20022;-84
2022/07/21 08:15:38;;;;;;;8.82;5.50;;;;;;;;;;4998586;28;20037;-84
2022/07/21 08:18:07;;;;;;;7.32;5.60;;;;;;;;;;5002688;28;20527;-85
2022/07/21 08:20:33;;;;;;;11.20;6.00;;;;;;;;;;5006961;28;20045;-84
2022/07/21 08:22:58;;;;;;;7.65;5.60;;;;;;;;;;5001307;28;20033;-85
2022/07/21 08:25:24;;;;;;;8.10;5.60;;;;;;;;;;5000889;28;20037;-85
2022/07/21 08:27:49;;;;;;;9.85;5.60;;;;;;;;;;5002682;28;20057;-84
2022/07/21 08:30:14;;;;;;;8.35;5.32;;;;;;;;;;5014097;28;20041;-84
2022/07/21 08:32:40;;;;;;;7.75;5.50;;;;;;;;;;5001805;28;20053;-85
2022/07/21 08:35:09;;;;;;;8.32;4.95;;;;;;;;;;4999266;28;20618;-85
2022/07/21 08:37:35;;;;;;;7.47;5.32;;;;;;;;;;4999259;28;20041;-86
2022/07/21 08:40:03;;;;;;;7.93;5.40;;;;;;;;;;5003497;28;20030;-86
2022/07/21 08:42:29;;;;;;;7.80;4.82;;;;;;;;;;5008262;28;20034;-85
2022/07/21 08:44:54;;;;;;;7.78;4.78;;;;;;;;;;5015302;28;20033;-85
2022/07/21 08:47:20;;;;;;;9.15;4.80;;;;;;;;;;5005617;28;20139;-86
2022/07/21 08:49:46;;;;;;;7.05;4.40;;;;;;;;;;4983910;28;20045;-85
2022/07/21 08:52:12;;;;;;;7.57;4.50;;;;;;;;;;5000684;28;20067;-86
2022/07/21 08:54:37;;;;;;;6.53;4.38;;;;;;;;;;5007009;28;20056;-86
2022/07/21 08:57:03;;;;;;;7.75;5.10;;;;;;;;;;4994367;28;20052;-86
2022/07/21 08:59:28;;;;;;;7.72;4.90;;;;;;;;;;5007303;28;20044;-85
2022/07/21 09:01:54;;;;;;;7.70;4.57;;;;;;;;;;4990328;28;20109;-85
2022/07/21 09:04:29;;;;;;;7.63;4.30;;;;;;;;;;4998983;28;20041;-86
2022/07/21 09:07:02;;;;;;;6.72;4.32;;;;;;;;;;5005794;28;20045;-84
2022/07/21 09:09:29;;;;;;;7.03;4.43;;;;;;;;;;5007864;28;20124;-86
2022/07/21 09:11:55;;;;;;;5.60;4.22;;;;;;;;;;5010106;28;20564;-86
2022/07/21 09:14:24;;;;;;;10.18;5.43;;;;;;;;;;4998784;28;20064;-85
2022/07/21 09:16:58;;;;;;;6.38;4.57;;;;;;;;;;4986626;28;20043;-86
2022/07/21 09:19:26;;;;;;;7.80;4.45;;;;;;;;;;4996963;28;20510;-86
2022/07/21 09:21:57;;;;;;;7.72;4.57;;;;;;;;;;5011444;28;20694;-85
2022/07/21 09:24:40;;;;;;;5.85;4.20;;;;;;;;;;5016611;28;20048;-87
2022/07/21 09:27:20;;;;;;;5.57;3.55;;;;;;;;;;5002295;28;20037;-86
2022/07/21 09:29:56;;;;;;;5.40;3.38;;;;;;;;;;5013465;28;20040;-85
2022/07/21 09:32:21;;;;;;;5.10;3.50;;;;;;;;;;5012581;28;20583;-87
2022/07/21 09:34:58;;;;;;;6.63;3.40;;;;;;;;;;5018622;28;20113;-85
2022/07/21 09:37:24;;;;;;;5.45;3.65;;;;;;;;;;5013394;28;20405;-86
2022/07/21 09:40:00;;;;;;;5.87;3.60;;;;;;;;;;5013150;28;20052;-86
2022/07/21 09:42:31;;;;;;;5.32;3.55;;;;;;;;;;5011602;28;20379;-86
2022/07/21 09:45:00;;;;;;;4.47;3.08;;;;;;;;;;4999701;28;20374;-88
2022/07/21 09:47:28;;;;;;;5.45;3.25;;;;;;;;;;5015279;28;20131;-86
2022/07/21 09:49:54;;;;;;;5.40;3.05;;;;;;;;;;5012785;28;20103;-86
2022/07/21 09:52:25;;;;;;;4.60;3.10;;;;;;;;;;5002136;28;20355;-85
2022/07/21 09:54:52;;;;;;;6.38;3.17;;;;;;;;;;5002913;28;20052;-85
2022/07/21 09:57:18;;;;;;;5.20;3.10;;;;;;;;;;5000682;28;20037;-85
2022/07/21 09:59:44;;;;;;;6.32;3.50;;;;;;;;;;5019972;28;20100;-85
2022/07/21 10:02:18;;;;;;;5.00;3.15;;;;;;;;;;5001933;28;20546;-85
2022/07/21 10:04:46;;;;;;;5.30;3.00;;;;;;;;;;5011746;28;20045;-86
2022/07/21 10:07:13;;;;;;;4.70;2.80;;;;;;;;;;5004923;28;20044;-85
2022/07/21 10:09:39;;;;;;;4.70;2.78;;;;;;;;;;4997165;28;20084;-86
2022/07/21 10:12:05;;;;;;;5.20;2.65;;;;;;;;;;4995617;28;20037;-86
2022/07/21 10:14:30;;;;;;;5.45;3.10;;;;;;;;;;4998866;28;20038;-86
2022/07/21 10:16:56;;;;;;;4.95;2.95;;;;;;;;;;4984905;28;20048;-87
2022/07/21 10:19:28;;;;;;;4.72;2.88;;;;;;;;;;4986021;28;20542;-86
2022/07/21 10:22:12;;;;;;;5.38;3.13;;;;;;;;;;4983939;28;20056;-86
2022/07/21 10:24:42;;;;;;;4.82;2.70;;;;;;;;;;5013786;28;20265;-84
2022/07/21 10:27:10;;;;;;;4.80;2.80;;;;;;;;;;5009594;28;20397;-85
2022/07/21 10:29:48;;;;;;;4.18;2.80;;;;;;;;;;5005355;28;20685;-87
2022/07/21 10:32:18;;;;;;;4.78;2.60;;;;;;;;;;5014517;28;20051;-85
2022/07/21 10:34:44;;;;;;;5.43;2.70;;;;;;;;;;5015444;28;20142;-86
2022/07/21 10:37:10;;;;;;;6.47;2.63;;;;;;;;;;4984244;28;20073;-85
2022/07/21 10:39:38;;;;;;;6.55;2.83;;;;;;;;;;5009775;28;20048;-85
2022/07/21 10:42:16;;;;;;;4.93;2.70;;;;;;;;;;4995259;28;20042;-85
2022/07/21 10:44:45;;;;;;;4.10;2.40;;;;;;;;;;5004149;28;20041;-85
2022/07/21 10:47:20;;;;;;;4.50;2.53;;;;;;;;;;5016157;28;20088;-85
2022/07/21 10:49:56;;;;;;;5.30;2.50;;;;;;;;;;5015097;28;20095;-86
2022/07/21 10:52:41;;;;;;;5.18;2.42;;;;;;;;;;5011561;28;20403;-86
2022/07/21 10:55:12;;;;;;;4.65;2.60;;;;;;;;;;5021588;28;20034;-85
2022/07/21 10:57:41;;;;;;;4.75;2.35;;;;;;;;;;5012748;28;20049;-85
2022/07/21 11:00:25;;;;;;;5.65;2.30;;;;;;;;;;4999638;28;20520;-85
2022/07/21 11:02:53;;;;;;;5.38;2.58;;;;;;;;;;5014556;28;20033;-85
2022/07/21 11:05:19;;;;;;;3.50;2.30;;;;;;;;;;4994838;28;20037;-86
2022/07/21 11:08:11;;;;;;;4.35;2.47;;;;;;;;;;4999668;28;20385;-85
2022/07/21 11:10:58;;;;;;;4.85;2.40;;;;;;;;;;5012432;28;20041;-84
2022/07/21 11:13:26;;;;;;;4.47;2.30;;;;;;;;;;4997806;28;20047;-85
2022/07/21 11:15:57;;;;;;;6.50;2.72;;;;;;;;;;4997542;28;20497;-85
2022/07/21 11:18:25;;;;;;;4.45;2.47;;;;;;;;;;5009990;28;20117;-86
2022/07/21 11:21:06;;;;;;;3.80;2.25;;;;;;;;;;5007536;28;20034;-85
2022/07/21 11:23:58;;;;;;;4.03;2.20;;;;;;;;;;5009855;28;20080;-85
2022/07/21 11:26:25;;;;;;;3.70;2.17;;;;;;;;;;5009534;28;20129;-86
2022/07/21 11:29:05;;;;;;;5.82;2.78;;;;;;;;;;5004599;28;20041;-86
2022/07/21 11:31:30;;;;;;;5.28;2.30;;;;;;;;;;5011546;28;20148;-86
2022/07/21 11:33:55;;;;;;;3.85;2.50;;;;;;;;;;4999974;28;20607;-85
2022/07/21 11:36:26;;;;;;;4.88;2.40;;;;;;;;;;4998178;28;20424;-86
2022/07/21 11:38:58;;;;;;;3.92;2.67;;;;;;;;;;4999398;28;20046;-85
2022/07/21 11:41:24;;;;;;;5.90;2.65;;;;;;;;;;5023572;28;20069;-87
2022/07/21 11:43:49;;;;;;;4.55;2.33;;;;;;;;;;4998986;28;20068;-85
2022/07/21 11:46:15;;;;;;;5.45;2.55;;;;;;;;;;5005744;28;20041;-86
2022/07/21 11:48:40;;;;;;;5.85;2.80;;;;;;;;;;4998857;28;20044;-84
2022/07/21 11:51:06;;;;;;;5.57;2.80;;;;;;;;;;5017844;28;20037;-85
2022/07/21 11:53:32;;;;;;;4.35;2.80;;;;;;;;;;5019526;28;20381;-85
2022/07/21 11:55:57;;;;;;;5.15;3.08;;;;;;;;;;5007779;28;20046;-86
2022/07/21 11:58:23;;;;;;;4.88;2.90;;;;;;;;;;5002936;28;20072;-86
2022/07/21 12:00:48;;;;;;;4.95;2.60;;;;;;;;;;5001896;28;20061;-86
2022/07/21 12:03:14;;;;;;;6.20;2.75;;;;;;;;;;5002797;28;20093;-85
2022/07/21 12:05:40;;;;;;;5.80;3.17;;;;;;;;;;4999482;28;20081;-86
2022/07/21 12:08:06;;;;;;;4.20;2.70;;;;;;;;;;4987561;28;20026;-86
2022/07/21 12:10:32;;;;;;;4.35;2.88;;;;;;;;;;5013641;28;20052;-85
2022/07/21 12:13:00;;;;;;;4.85;2.80;;;;;;;;;;5001457;28;20056;-86
2022/07/21 12:15:31;;;;;;;5.88;2.80;;;;;;;;;;5014855;28;20113;-86
2022/07/21 12:17:59;;;;;;;5.35;3.00;;;;;;;;;;5000859;28;20061;-86
2022/07/21 12:20:25;;;;;;;4.60;2.50;;;;;;;;;;5017575;28;20033;-86
2022/07/21 12:22:51;;;;;;;4.50;2.63;;;;;;;;;;5017257;28;20040;-85
2022/07/21 12:25:18;;;;;;;4.28;2.78;;;;;;;;;;4986529;28;20030;-85
2022/07/21 12:27:49;;;;;;;5.05;3.30;;;;;;;;;;5002674;28;20497;-85
2022/07/21 12:30:31;;;;;;;6.63;3.40;;;;;;;;;;5016462;28;20057;-85
2022/07/21 12:33:04;;;;;;;5.63;3.20;;;;;;;;;;5017336;28;20038;-85
2022/07/21 12:35:30;;;;;;;5.22;2.88;;;;;;;;;;5017860;28;20607;-85
2022/07/21 12:37:58;;;;;;;5.93;3.13;;;;;;;;;;5019649;28;20116;-86
2022/07/21 12:40:25;;;;;;;4.88;3.05;;;;;;;;;;5023522;28;20057;-85
2022/07/21 12:42:53;;;;;;;4.82;3.30;;;;;;;;;;5001360;28;20029;-85
2022/07/21 12:45:20;;;;;;;6.15;3.08;;;;;;;;;;5002861;28;20036;-85
2022/07/21 12:48:08;;;;;;;7.43;3.50;;;;;;;;;;4996300;28;20042;-85
2022/07/21 12:50:34;;;;;;;6.07;3.30;;;;;;;;;;5000003;28;20121;-85
2022/07/21 12:53:00;;;;;;;5.97;3.22;;;;;;;;;;4999514;28;20524;-86
2022/07/21 12:55:25;;;;;;;4.20;2.75;;;;;;;;;;4999810;28;20049;-85
2022/07/21 12:57:50;;;;;;;8.25;3.15;;;;;;;;;;5017229;28;20042;-85
2022/07/21 13:00:16;;;;;;;3.80;2.47;;;;;;;;;;4997796;28;20033;-85
2022/07/21 13:02:52;;;;;;;4.53;2.72;;;;;;;;;;5000324;28;20409;-85
2022/07/21 13:05:18;;;;;;;4.72;2.90;;;;;;;;;;5013935;28;20033;-86
2022/07/21 13:07:43;;;;;;;6.30;2.85;;;;;;;;;;4999911;28;20092;-86
2022/07/21 13:10:09;;;;;;;5.55;2.70;;;;;;;;;;4999376;28;20038;-85
2022/07/21 13:12:35;;;;;;;4.53;3.08;;;;;;;;;;5000033;28;20144;-85
2022/07/21 13:15:00;;;;;;;4.20;2.60;;;;;;;;;;5016076;28;20033;-85
2022/07/21 13:17:25;;;;;;;7.95;3.83;;;;;;;;;;4998976;28;20045;-86
2022/07/21 13:19:51;;;;;;;6.43;3.78;;;;;;;;;;5014653;28;20485;-86
2022/07/21 13:22:16;;;;;;;4.60;3.30;;;;;;;;;;5013150;28;20485;-85
2022/07/21 13:24:41;;;;;;;6.85;3.22;;;;;;;;;;5007831;28;20501;-85
2022/07/21 13:27:07;;;;;;;5.05;3.40;;;;;;;;;;4996593;28;20088;-85
2022/07/21 13:29:33;;;;;;;5.95;3.38;;;;;;;;;;4998787;28;20034;-84
2022/07/21 13:31:58;;;;;;;5.60;3.33;;;;;;;;;;4985901;28;20042;-85
2022/07/21 13:34:24;;;;;;;5.65;3.55;;;;;;;;;;5014664;28;20049;-86
2022/07/21 13:36:49;;;;;;;5.32;3.53;;;;;;;;;;4984051;28;20030;-85
2022/07/21 13:39:15;;;;;;;6.30;3.50;;;;;;;;;;5003514;28;20068;-86
2022/07/21 13:41:40;;;;;;;4.85;3.35;;;;;;;;;;4999794;28;20038;-87
2022/07/21 13:44:06;;;;;;;6.63;3.28;;;;;;;;;;5001432;28;20033;-86
2022/07/21 13:46:31;;;;;;;6.20;3.83;;;;;;;;;;5002691;28;20039;-85
2022/07/21 13:48:56;;;;;;;6.82;3.63;;;;;;;;;;4998764;28;20611;-85
2022/07/21 13:51:22;;;;;;;4.93;3.35;;;;;;;;;;4981916;28;20045;-86
2022/07/21 13:53:49;;;;;;;7.05;3.50;;;;;;;;;;4981979;28;20088;-86
2022/07/21 13:56:15;;;;;;;5.47;3.57;;;;;;;;;;4995185;28;20725;-86
2022/07/21 13:58:41;;;;;;;5.00;3.35;;;;;;;;;;4996162;28;20760;-86
2022/07/21 14:01:07;;;;;;;7.53;3.55;;;;;;;;;;4998507;28;20631;-86
2022/07/21 14:03:34;;;;;;;7.10;3.67;;;;;;;;;;5013349;28;20117;-86
2022/07/21 14:05:59;;;;;;;5.35;3.60;;;;;;;;;;5012688;28;20029;-85
2022/07/21 14:08:25;;;;;;;5.35;3.60;;;;;;;;;;4998680;28;20456;-85
2022/07/21 14:10:51;;;;;;;5.18;3.50;;;;;;;;;;5014948;28;20516;-85
2022/07/21 14:13:16;;;;;;;5.25;3.35;;;;;;;;;;4999271;28;20032;-86
2022/07/21 14:15:42;;;;;;;5.72;3.22;;;;;;;;;;5010288;28;20124;-85
2022/07/21 14:18:07;;;;;;;4.68;2.83;;;;;;;;;;5000461;28;20069;-85
2022/07/21 14:20:35;;;;;;;4.28;2.90;;;;;;;;;;4997476;28;20030;-85
2022/07/21 14:23:03;;;;;;;4.82;2.95;;;;;;;;;;5000096;28;20113;-86
2022/07/21 14:25:29;;;;;;;4.03;2.70;;;;;;;;;;5015359;28;20038;-85
2022/07/21 14:27:56;;;;;;;5.50;2.88;;;;;;;;;;4981224;28;20509;-85
2022/07/21 14:30:22;;;;;;;4.75;3.05;;;;;;;;;;4992746;28;20041;-86
2022/07/21 14:32:48;;;;;;;6.47;2.92;;;;;;;;;;5005206;28;20547;-85
2022/07/21 14:35:18;;;;;;;4.90;2.78;;;;;;;;;;5011792;28;20041;-87
2022/07/21 14:37:45;;;;;;;6.10;3.17;;;;;;;;;;4992041;28;20064;-84
2022/07/21 14:40:11;;;;;;;4.90;3.10;;;;;;;;;;5015108;28;20498;-84
2022/07/21 14:42:36;;;;;;;5.10;3.10;;;;;;;;;;4996657;28;20116;-84